Aérodrome :
LOGIN :

S'inscrire | Disclaimer

   EN    FR    IT 

 










Légende :    VFR   VFR Marginal   IFR   IFR Intensif   IFR Très Intensif
Visi : 
Plafond : 
>= 8 km
>= 3000ft
5 à 8 km
1000 à 3000 ft
1500m à 5 km
500 à 1000 ft
800 à 1500m
200 à 500 ft
< 800m
< 200 ft
Symboles :   Orages  Brouillard  Fortes neiges  Fortes précipitations  Vent > 20 kt
SIGMETs :   Divers  Orages  Givrage  Turbulence  Onde Orograph.  Cendres Volcan.







- Altitude de l'aérodrome : 768 ft
- Code IATA : MXP


LIMC - Milano Malpensa

DERNIER METAR :
  • 191950Z VRB02KT 2500 R35R/0600D R17L/P1500N R35L/P1500N BCFG NSC 12/11 Q1019 NOSIG

METARs EXPIRÉS :
  • 191920Z 12002KT 2500 BR NSC 13/11 Q1019 NOSIG
  • 191850Z 12004KT 090V150 3000 BR NSC 14/12 Q1019 NOSIG
  • 191820Z VRB02KT 3000 BR NSC 14/11 Q1019 NOSIG
  • 191750Z VRB02KT 3000 BR NSC 14/12 Q1019 NOSIG
  • 191720Z 13004KT 3000 BR NSC 15/12 Q1018 NOSIG

TAF TAF LIMC
Valide du 19 à 18h jusqu'au 21 à 00h UTC


191700Z 1918/2024 VRB05KT 2500 BR NSC
TEMPO 2000/2008 0800 BCFG
Pas de NOTAMs connus pour ce terrain.



MET'MAP, la Météo Aéronautique d'un coup d'oeil ! - Copyright ORBIFLY Décembre 2007 - Disclaimer

ORBIFLY MET'MAP TEAM :

Programmation & Développement : Alexandra Zaïnal
Conception & Développement : Baudouin d'Aumeries
Co-Programmation & Développement : Marc-Olivier Méhu
Soutien technique & logistique : Manuel Goepfert

Contact : metmap@orbifly.com




SOURCES & CREDITS :

   NOAA